createdAt,value
2019-05-03T00:08:48.564Z,1.00
2019-05-03T00:18:54.412Z,1.10
2019-05-03T00:29:02.090Z,1.00
2019-05-03T00:39:33.042Z,1.00
2019-05-03T00:49:38.445Z,0.90
2019-05-03T00:59:43.869Z,1.10
2019-05-03T01:09:49.442Z,0.80
2019-05-03T01:19:54.937Z,1.00
2019-05-03T01:30:02.898Z,1.00
2019-05-03T01:40:08.315Z,0.93
2019-05-03T01:50:22.889Z,0.90
2019-05-03T02:00:31.786Z,0.90
2019-05-03T02:10:37.141Z,1.00
2019-05-03T02:20:42.833Z,0.73
2019-05-03T02:30:48.155Z,0.80
2019-05-03T02:40:53.586Z,0.90
2019-05-03T02:50:58.953Z,1.00
2019-05-03T03:01:06.651Z,0.90
2019-05-03T03:11:12.182Z,0.80
2019-05-03T03:21:19.191Z,0.80
2019-05-03T03:32:01.428Z,0.90
2019-05-03T03:42:07.049Z,0.80
2019-05-03T03:52:16.042Z,0.90
2019-05-03T04:02:21.083Z,1.00
2019-05-03T04:12:26.918Z,0.70
2019-05-03T04:22:32.682Z,0.80
2019-05-03T04:32:38.215Z,0.60
2019-05-03T04:42:46.274Z,0.77
2019-05-03T04:52:50.752Z,0.73
2019-05-03T05:02:56.131Z,0.90
2019-05-03T05:13:01.503Z,0.80
2019-05-03T05:23:06.983Z,0.80
2019-05-03T05:33:20.940Z,0.83
2019-05-03T05:43:26.328Z,0.83
2019-05-03T05:53:31.671Z,0.70
2019-05-03T06:03:36.985Z,0.80
2019-05-03T06:13:46.759Z,0.70
2019-05-03T06:23:57.951Z,0.73
2019-05-03T06:34:04.534Z,0.70
2019-05-03T06:44:10.153Z,0.90
2019-05-03T06:54:15.911Z,0.70
2019-05-03T07:04:25.826Z,0.67
2019-05-03T07:14:31.178Z,0.80
2019-05-03T07:24:40.604Z,0.60
2019-05-03T07:34:45.381Z,0.70
2019-05-03T07:44:52.953Z,0.60
2019-05-03T07:54:59.584Z,0.70
2019-05-03T08:05:05.451Z,0.70
2019-05-03T08:15:10.752Z,0.70
2019-05-03T08:25:16.272Z,0.80
2019-05-03T08:35:42.349Z,0.70
2019-05-03T08:45:47.799Z,0.80
2019-05-03T08:55:55.213Z,0.70
2019-05-03T09:06:00.189Z,0.70
2019-05-03T09:16:05.727Z,0.70
2019-05-03T09:26:11.125Z,0.70
2019-05-03T09:36:16.524Z,0.63
2019-05-03T09:46:24.283Z,0.70
2019-05-03T09:56:55.216Z,0.90
2019-05-03T10:06:56.454Z,0.87
2019-05-03T10:17:25.213Z,0.90
2019-05-03T10:27:34.608Z,0.70
2019-05-03T10:37:39.825Z,0.70
2019-05-03T10:47:45.724Z,0.60
2019-05-03T10:58:08.520Z,0.70
2019-05-03T11:08:14.555Z,0.63
2019-05-03T11:18:20.055Z,0.67
2019-05-03T11:28:27.029Z,0.60
2019-05-03T11:38:38.056Z,0.70
2019-05-03T11:48:45.518Z,0.70
2019-05-03T11:58:50.626Z,0.67
2019-05-03T12:08:55.947Z,0.80
2019-05-03T12:19:15.703Z,0.60
2019-05-03T12:29:08.537Z,0.77
2019-05-03T12:39:24.192Z,0.57
2019-05-03T12:49:21.288Z,0.70
2019-05-03T13:00:05.060Z,0.77
2019-05-03T13:10:10.913Z,0.80
2019-05-03T13:20:16.512Z,0.70
2019-05-03T13:30:21.892Z,0.73
2019-05-03T13:40:27.270Z,0.80
2019-05-03T13:50:32.765Z,0.60
2019-05-03T14:00:38.190Z,0.60
2019-05-03T14:10:45.604Z,0.70
2019-05-03T14:21:27.993Z,0.80
2019-05-03T14:31:34.587Z,0.80
2019-05-03T14:41:40.147Z,0.70
2019-05-03T14:51:45.734Z,0.80
2019-05-03T15:02:06.739Z,0.73
2019-05-03T15:12:12.055Z,0.60
2019-05-03T15:22:17.441Z,0.50
2019-05-03T15:32:22.901Z,0.50
2019-05-03T15:42:29.137Z,0.67
2019-05-03T15:52:35.304Z,0.63
2019-05-03T16:02:41.841Z,0.50
2019-05-03T16:12:47.223Z,0.53
2019-05-03T16:22:54.247Z,0.70
2019-05-03T16:32:59.654Z,0.70
2019-05-03T16:43:05.095Z,0.50
2019-05-03T16:53:10.532Z,0.60
2019-05-03T17:03:17.514Z,0.60
2019-05-03T17:13:22.848Z,0.60
2019-05-03T17:23:28.340Z,0.73
2019-05-03T17:33:34.876Z,0.53
2019-05-03T17:43:59.371Z,0.50
2019-05-03T17:54:25.193Z,0.70
2019-05-03T18:04:43.610Z,0.60
2019-05-03T18:14:49.108Z,0.60
2019-05-03T18:24:55.717Z,0.70
2019-05-03T18:35:01.043Z,0.50
2019-05-03T18:45:21.926Z,0.60
2019-05-03T18:55:27.449Z,0.50
2019-05-03T19:05:34.978Z,0.60
2019-05-03T19:15:40.719Z,0.70
2019-05-03T19:25:49.459Z,0.60
2019-05-03T19:35:55.004Z,0.60
2019-05-03T19:46:00.607Z,0.60
2019-05-03T19:56:06.540Z,0.60
2019-05-03T20:06:31.263Z,0.40
2019-05-03T20:16:39.842Z,0.60
2019-05-03T20:26:45.361Z,0.50
2019-05-03T20:36:50.698Z,0.60
2019-05-03T20:47:04.281Z,0.60
2019-05-03T20:57:09.333Z,0.53
2019-05-03T21:07:16.112Z,0.60
2019-05-03T21:17:42.121Z,0.60
2019-05-03T21:27:47.576Z,0.60
2019-05-03T21:37:54.417Z,0.57
2019-05-03T21:48:05.569Z,0.60
2019-05-03T21:58:10.915Z,0.60
2019-05-03T22:08:16.327Z,0.70
2019-05-03T22:18:26.771Z,0.47
2019-05-03T22:28:35.238Z,0.63
2019-05-03T22:38:40.577Z,0.50
2019-05-03T22:48:46.648Z,0.50
2019-05-03T22:58:52.172Z,0.70
2019-05-03T23:08:57.663Z,0.60
2019-05-03T23:19:05.551Z,0.50
2019-05-03T23:29:11.170Z,0.80
2019-05-03T23:39:16.505Z,0.50
2019-05-03T23:49:21.892Z,0.40
2019-05-03T23:59:27.325Z,0.50
